sensor_id;sensor_type;location;lat;lon;timestamp;pressure;altitude;pressure_sealevel;temperature;humidity
17362;BME280;8798;51.938;4.348;2024-01-25T00:01:28;102448.44;;;9.52;79.82
17362;BME280;8798;51.938;4.348;2024-01-25T00:03:56;102434.50;;;9.46;80.29
17362;BME280;8798;51.938;4.348;2024-01-25T00:06:24;102423.97;;;9.43;79.75
17362;BME280;8798;51.938;4.348;2024-01-25T00:08:54;102428.59;;;9.41;79.96
17362;BME280;8798;51.938;4.348;2024-01-25T00:11:22;102419.91;;;9.38;79.41
17362;BME280;8798;51.938;4.348;2024-01-25T00:13:50;102412.94;;;9.35;79.55
17362;BME280;8798;51.938;4.348;2024-01-25T00:16:18;102409.56;;;9.32;79.71
17362;BME280;8798;51.938;4.348;2024-01-25T00:18:46;102400.03;;;9.28;79.75
17362;BME280;8798;51.938;4.348;2024-01-25T00:21:14;102385.97;;;9.24;79.56
17362;BME280;8798;51.938;4.348;2024-01-25T00:23:42;102379.00;;;9.21;79.68
17362;BME280;8798;51.938;4.348;2024-01-25T00:26:12;102372.03;;;9.19;79.72
17362;BME280;8798;51.938;4.348;2024-01-25T00:28:40;102371.38;;;9.15;79.67
17362;BME280;8798;51.938;4.348;2024-01-25T00:31:08;102369.66;;;9.14;79.65
17362;BME280;8798;51.938;4.348;2024-01-25T00:33:36;102363.66;;;9.11;79.83
17362;BME280;8798;51.938;4.348;2024-01-25T00:36:05;102362.91;;;9.09;79.81
17362;BME280;8798;51.938;4.348;2024-01-25T00:38:34;102360.44;;;9.06;80.05
17362;BME280;8798;51.938;4.348;2024-01-25T00:41:02;102358.81;;;9.03;79.54
17362;BME280;8798;51.938;4.348;2024-01-25T00:43:33;102353.66;;;9.00;79.63
17362;BME280;8798;51.938;4.348;2024-01-25T00:46:02;102355.59;;;8.98;79.94
17362;BME280;8798;51.938;4.348;2024-01-25T00:48:30;102350.31;;;8.96;79.71
17362;BME280;8798;51.938;4.348;2024-01-25T00:50:59;102350.41;;;8.95;79.75
17362;BME280;8798;51.938;4.348;2024-01-25T00:53:27;102349.78;;;8.91;79.88
17362;BME280;8798;51.938;4.348;2024-01-25T00:55:56;102349.88;;;8.90;79.83
17362;BME280;8798;51.938;4.348;2024-01-25T00:58:24;102341.97;;;8.88;79.46
17362;BME280;8798;51.938;4.348;2024-01-25T01:00:54;102340.34;;;8.86;79.91
17362;BME280;8798;51.938;4.348;2024-01-25T01:03:24;102343.13;;;8.84;79.82
17362;BME280;8798;51.938;4.348;2024-01-25T01:05:53;102342.34;;;8.82;79.80
17362;BME280;8798;51.938;4.348;2024-01-25T01:08:21;102341.59;;;8.80;79.72
17362;BME280;8798;51.938;4.348;2024-01-25T01:10:49;102339.88;;;8.79;80.14
17362;BME280;8798;51.938;4.348;2024-01-25T01:13:18;102348.13;;;8.76;80.08
17362;BME280;8798;51.938;4.348;2024-01-25T01:15:46;102345.47;;;8.76;79.72
17362;BME280;8798;51.938;4.348;2024-01-25T01:18:15;102347.38;;;8.74;80.02
17362;BME280;8798;51.938;4.348;2024-01-25T01:20:43;102344.91;;;8.71;80.01
17362;BME280;8798;51.938;4.348;2024-01-25T01:23:11;102332.59;;;8.68;79.70
17362;BME280;8798;51.938;4.348;2024-01-25T01:25:39;102336.31;;;8.66;80.22
17362;BME280;8798;51.938;4.348;2024-01-25T01:28:07;102339.94;;;8.65;80.00
17362;BME280;8798;51.938;4.348;2024-01-25T01:30:35;102336.50;;;8.63;80.07
17362;BME280;8798;51.938;4.348;2024-01-25T01:33:04;102334.88;;;8.60;79.84
17362;BME280;8798;51.938;4.348;2024-01-25T01:35:33;102334.13;;;8.58;80.08
17362;BME280;8798;51.938;4.348;2024-01-25T01:38:01;102338.63;;;8.57;79.97
17362;BME280;8798;51.938;4.348;2024-01-25T01:40:29;102339.59;;;8.56;80.11
17362;BME280;8798;51.938;4.348;2024-01-25T01:43:01;102333.56;;;8.53;80.00
17362;BME280;8798;51.938;4.348;2024-01-25T01:45:29;102342.59;;;8.52;80.35
17362;BME280;8798;51.938;4.348;2024-01-25T01:47:58;102334.75;;;8.49;80.21
17362;BME280;8798;51.938;4.348;2024-01-25T01:50:27;102337.53;;;8.47;80.13
17362;BME280;8798;51.938;4.348;2024-01-25T01:52:57;102336.75;;;8.45;80.34
17362;BME280;8798;51.938;4.348;2024-01-25T01:55:25;102328.94;;;8.42;79.80
17362;BME280;8798;51.938;4.348;2024-01-25T01:57:53;102332.69;;;8.39;80.14
17362;BME280;8798;51.938;4.348;2024-01-25T02:00:22;102321.16;;;8.37;79.93
17362;BME280;8798;51.938;4.348;2024-01-25T02:02:51;102327.59;;;8.35;80.10
17362;BME280;8798;51.938;4.348;2024-01-25T02:05:20;102324.16;;;8.33;79.98
17362;BME280;8798;51.938;4.348;2024-01-25T02:07:48;102319.00;;;8.30;80.43
17362;BME280;8798;51.938;4.348;2024-01-25T02:10:17;102326.25;;;8.28;79.99
17362;BME280;8798;51.938;4.348;2024-01-25T02:12:45;102323.72;;;8.26;80.51
17362;BME280;8798;51.938;4.348;2024-01-25T02:15:13;102319.41;;;8.24;80.46
17362;BME280;8798;51.938;4.348;2024-01-25T02:17:41;102322.19;;;8.22;80.49
17362;BME280;8798;51.938;4.348;2024-01-25T02:20:10;102324.09;;;8.20;80.12
17362;BME280;8798;51.938;4.348;2024-01-25T02:22:39;102324.09;;;8.20;80.09
17362;BME280;8798;51.938;4.348;2024-01-25T02:25:08;102328.78;;;8.16;80.55
17362;BME280;8798;51.938;4.348;2024-01-25T02:27:36;102327.06;;;8.15;80.13
17362;BME280;8798;51.938;4.348;2024-01-25T02:30:06;102328.97;;;8.13;80.57
17362;BME280;8798;51.938;4.348;2024-01-25T02:32:34;102328.25;;;8.11;80.10
17362;BME280;8798;51.938;4.348;2024-01-25T02:35:03;102333.69;;;8.10;80.37
17362;BME280;8798;51.938;4.348;2024-01-25T02:37:31;102329.38;;;8.07;80.36
17362;BME280;8798;51.938;4.348;2024-01-25T02:40:00;102333.03;;;8.06;80.05
17362;BME280;8798;51.938;4.348;2024-01-25T02:42:30;102331.28;;;8.05;80.23
17362;BME280;8798;51.938;4.348;2024-01-25T02:44:58;102336.84;;;8.02;80.18
17362;BME280;8798;51.938;4.348;2024-01-25T02:47:26;102339.53;;;8.02;80.54
17362;BME280;8798;51.938;4.348;2024-01-25T02:49:54;102334.38;;;7.99;80.03
17362;BME280;8798;51.938;4.348;2024-01-25T02:52:22;102331.78;;;7.97;80.16
17362;BME280;8798;51.938;4.348;2024-01-25T02:54:50;102339.03;;;7.95;80.38
17362;BME280;8798;51.938;4.348;2024-01-25T02:57:19;102332.06;;;7.93;80.13
17362;BME280;8798;51.938;4.348;2024-01-25T02:59:47;102323.28;;;7.91;80.53
17362;BME280;8798;51.938;4.348;2024-01-25T03:02:15;102320.81;;;7.88;80.40
17362;BME280;8798;51.938;4.348;2024-01-25T03:04:46;102320.16;;;7.84;80.56
17362;BME280;8798;51.938;4.348;2024-01-25T03:07:14;102326.44;;;7.83;80.59
17362;BME280;8798;51.938;4.348;2024-01-25T03:09:42;102319.47;;;7.81;80.12
17362;BME280;8798;51.938;4.348;2024-01-25T03:12:10;102316.91;;;7.79;80.32
17362;BME280;8798;51.938;4.348;2024-01-25T03:14:41;102326.84;;;7.77;80.37
17362;BME280;8798;51.938;4.348;2024-01-25T03:17:09;102329.59;;;7.75;80.11
17362;BME280;8798;51.938;4.348;2024-01-25T03:19:38;102332.28;;;7.75;80.34
17362;BME280;8798;51.938;4.348;2024-01-25T03:22:06;102334.97;;;7.75;80.26
17362;BME280;8798;51.938;4.348;2024-01-25T03:24:37;102343.09;;;7.74;80.89
17362;BME280;8798;51.938;4.348;2024-01-25T03:27:05;102345.94;;;7.71;80.79
17362;BME280;8798;51.938;4.348;2024-01-25T03:29:42;102343.25;;;7.71;81.02
17362;BME280;8798;51.938;4.348;2024-01-25T03:32:10;102354.06;;;7.69;80.79
17362;BME280;8798;51.938;4.348;2024-01-25T03:34:38;102355.00;;;7.68;80.65
17362;BME280;8798;51.938;4.348;2024-01-25T03:37:07;102355.00;;;7.68;80.02
17362;BME280;8798;51.938;4.348;2024-01-25T03:39:35;102356.06;;;7.66;80.32
17362;BME280;8798;51.938;4.348;2024-01-25T03:42:03;102357.97;;;7.64;80.38
17362;BME280;8798;51.938;4.348;2024-01-25T03:44:31;102361.63;;;7.63;80.80
17362;BME280;8798;51.938;4.348;2024-01-25T03:47:00;102352.94;;;7.59;81.09
17362;BME280;8798;51.938;4.348;2024-01-25T03:49:28;102352.06;;;7.59;81.05
17362;BME280;8798;51.938;4.348;2024-01-25T03:51:57;102352.16;;;7.57;80.99
17362;BME280;8798;51.938;4.348;2024-01-25T03:54:25;102363.78;;;7.56;80.14
17362;BME280;8798;51.938;4.348;2024-01-25T03:56:52;102357.69;;;7.54;80.49
17362;BME280;8798;51.938;4.348;2024-01-25T03:59:20;102353.38;;;7.51;80.98
17362;BME280;8798;51.938;4.348;2024-01-25T04:01:48;102356.16;;;7.50;80.97
17362;BME280;8798;51.938;4.348;2024-01-25T04:04:18;102356.25;;;7.48;80.48
17362;BME280;8798;51.938;4.348;2024-01-25T04:06:46;102347.56;;;7.45;80.30
17362;BME280;8798;51.938;4.348;2024-01-25T04:09:15;102346.03;;;7.41;80.52
17362;BME280;8798;51.938;4.348;2024-01-25T04:11:43;102335.53;;;7.38;81.03
17362;BME280;8798;51.938;4.348;2024-01-25T04:14:16;102329.50;;;7.34;80.60
17362;BME280;8798;51.938;4.348;2024-01-25T04:16:44;102326.16;;;7.30;80.74
17362;BME280;8798;51.938;4.348;2024-01-25T04:19:13;102314.78;;;7.27;81.16
17362;BME280;8798;51.938;4.348;2024-01-25T04:21:42;102304.41;;;7.22;81.04
17362;BME280;8798;51.938;4.348;2024-01-25T04:24:10;102303.63;;;7.20;80.88
17362;BME280;8798;51.938;4.348;2024-01-25T04:26:38;102293.22;;;7.16;80.21
17362;BME280;8798;51.938;4.348;2024-01-25T04:29:06;102284.50;;;7.12;79.92
17362;BME280;8798;51.938;4.348;2024-01-25T04:31:34;102288.16;;;7.11;80.20
17362;BME280;8798;51.938;4.348;2024-01-25T04:34:02;102289.13;;;7.10;80.67
17362;BME280;8798;51.938;4.348;2024-01-25T04:36:30;102289.28;;;7.07;81.25
17362;BME280;8798;51.938;4.348;2024-01-25T04:38:59;102281.47;;;7.04;80.81
17362;BME280;8798;51.938;4.348;2024-01-25T04:41:27;102278.00;;;7.02;80.29
17362;BME280;8798;51.938;4.348;2024-01-25T04:43:55;102273.84;;;6.98;80.47
17362;BME280;8798;51.938;4.348;2024-01-25T04:46:23;102275.72;;;6.96;80.33
17362;BME280;8798;51.938;4.348;2024-01-25T04:48:51;102270.59;;;6.93;80.61
17362;BME280;8798;51.938;4.348;2024-01-25T04:51:19;102260.06;;;6.89;81.10
17362;BME280;8798;51.938;4.348;2024-01-25T04:53:47;102267.41;;;6.86;81.43
17362;BME280;8798;51.938;4.348;2024-01-25T04:56:17;102257.78;;;6.83;81.15
17362;BME280;8798;51.938;4.348;2024-01-25T04:58:45;102258.81;;;6.81;80.76
17362;BME280;8798;51.938;4.348;2024-01-25T05:01:13;102256.22;;;6.79;80.65
17362;BME280;8798;51.938;4.348;2024-01-25T05:03:41;102256.34;;;6.78;80.84
17362;BME280;8798;51.938;4.348;2024-01-25T05:06:09;102248.41;;;6.76;81.16
17362;BME280;8798;51.938;4.348;2024-01-25T05:08:36;102264.50;;;6.75;80.75
17362;BME280;8798;51.938;4.348;2024-01-25T05:11:05;102265.56;;;6.72;80.47
17362;BME280;8798;51.938;4.348;2024-01-25T05:13:34;102257.72;;;6.69;81.08
17362;BME280;8798;51.938;4.348;2024-01-25T05:16:03;102258.69;;;6.68;80.76
17362;BME280;8798;51.938;4.348;2024-01-25T05:18:31;102272.91;;;6.68;80.34
17362;BME280;8798;51.938;4.348;2024-01-25T05:20:59;102278.25;;;6.68;81.25
17362;BME280;8798;51.938;4.348;2024-01-25T05:23:27;102280.13;;;6.66;81.00
17362;BME280;8798;51.938;4.348;2024-01-25T05:25:55;102287.28;;;6.66;80.74
17362;BME280;8798;51.938;4.348;2024-01-25T05:28:23;102294.34;;;6.67;81.27
17362;BME280;8798;51.938;4.348;2024-01-25T05:30:53;102301.50;;;6.66;80.54
17362;BME280;8798;51.938;4.348;2024-01-25T05:33:21;102305.97;;;6.66;81.37
17362;BME280;8798;51.938;4.348;2024-01-25T05:35:50;102312.25;;;6.65;81.37
17362;BME280;8798;51.938;4.348;2024-01-25T05:38:18;102313.28;;;6.62;80.97
17362;BME280;8798;51.938;4.348;2024-01-25T05:40:46;102308.84;;;6.63;80.70
17362;BME280;8798;51.938;4.348;2024-01-25T05:43:13;102313.41;;;6.61;81.40
17362;BME280;8798;51.938;4.348;2024-01-25T05:45:41;102319.66;;;6.60;81.23
17362;BME280;8798;51.938;4.348;2024-01-25T05:48:11;102331.22;;;6.60;80.66
17362;BME280;8798;51.938;4.348;2024-01-25T05:50:39;102332.16;;;6.59;80.92
17362;BME280;8798;51.938;4.348;2024-01-25T05:53:07;102343.69;;;6.60;81.06
17362;BME280;8798;51.938;4.348;2024-01-25T05:55:35;102347.25;;;6.60;80.85
17362;BME280;8798;51.938;4.348;2024-01-25T05:58:03;102350.00;;;6.59;80.88
17362;BME280;8798;51.938;4.348;2024-01-25T06:00:31;102350.97;;;6.58;81.86
17362;BME280;8798;51.938;4.348;2024-01-25T06:02:59;102359.81;;;6.58;80.49
17362;BME280;8798;51.938;4.348;2024-01-25T06:05:29;102367.84;;;6.58;81.22
17362;BME280;8798;51.938;4.348;2024-01-25T06:07:57;102370.50;;;6.58;80.52
17362;BME280;8798;51.938;4.348;2024-01-25T06:10:25;102377.66;;;6.58;81.45
17362;BME280;8798;51.938;4.348;2024-01-25T06:12:54;102393.69;;;6.58;81.54
17362;BME280;8798;51.938;4.348;2024-01-25T06:15:22;102395.47;;;6.57;81.55
17362;BME280;8798;51.938;4.348;2024-01-25T06:17:49;102398.13;;;6.57;81.92
17362;BME280;8798;51.938;4.348;2024-01-25T06:20:17;102406.13;;;6.57;80.68
17362;BME280;8798;51.938;4.348;2024-01-25T06:22:47;102404.50;;;6.55;81.78
17362;BME280;8798;51.938;4.348;2024-01-25T06:25:15;102402.88;;;6.52;82.11
17362;BME280;8798;51.938;4.348;2024-01-25T06:27:43;102392.31;;;6.51;81.52
17362;BME280;8798;51.938;4.348;2024-01-25T06:30:12;102390.75;;;6.46;81.64
17362;BME280;8798;51.938;4.348;2024-01-25T06:32:40;102374.06;;;6.43;81.62
17362;BME280;8798;51.938;4.348;2024-01-25T06:35:08;102370.69;;;6.39;81.12
17362;BME280;8798;51.938;4.348;2024-01-25T06:37:37;102367.22;;;6.37;80.98
17362;BME280;8798;51.938;4.348;2024-01-25T06:40:07;102366.44;;;6.35;81.40
17362;BME280;8798;51.938;4.348;2024-01-25T06:42:35;102378.88;;;6.36;80.66
17362;BME280;8798;51.938;4.348;2024-01-25T06:45:04;102386.88;;;6.36;81.74
17362;BME280;8798;51.938;4.348;2024-01-25T06:47:32;102393.91;;;6.37;81.26
17362;BME280;8798;51.938;4.348;2024-01-25T06:50:00;102412.53;;;6.39;81.76
17362;BME280;8798;51.938;4.348;2024-01-25T06:52:28;102425.75;;;6.40;81.71
17362;BME280;8798;51.938;4.348;2024-01-25T06:54:57;102435.50;;;6.41;81.08
17362;BME280;8798;51.938;4.348;2024-01-25T06:57:26;102450.56;;;6.42;81.59
17362;BME280;8798;51.938;4.348;2024-01-25T06:59:54;102456.78;;;6.43;81.12
17362;BME280;8798;51.938;4.348;2024-01-25T07:02:23;102459.47;;;6.43;81.35
17362;BME280;8798;51.938;4.348;2024-01-25T07:04:51;102473.66;;;6.43;81.29
17362;BME280;8798;51.938;4.348;2024-01-25T07:07:21;102487.78;;;6.45;81.08
17362;BME280;8798;51.938;4.348;2024-01-25T07:09:49;102491.31;;;6.46;81.37
17362;BME280;8798;51.938;4.348;2024-01-25T07:12:17;102500.09;;;6.48;81.96
17362;BME280;8798;51.938;4.348;2024-01-25T07:14:46;102520.44;;;6.51;80.99
17362;BME280;8798;51.938;4.348;2024-01-25T07:17:14;102541.59;;;6.54;82.18
17362;BME280;8798;51.938;4.348;2024-01-25T07:19:42;102552.22;;;6.55;81.80
17362;BME280;8798;51.938;4.348;2024-01-25T07:22:10;102556.53;;;6.58;81.69
17362;BME280;8798;51.938;4.348;2024-01-25T07:24:40;102585.72;;;6.61;81.53
17362;BME280;8798;51.938;4.348;2024-01-25T07:27:07;102595.38;;;6.63;81.92
17362;BME280;8798;51.938;4.348;2024-01-25T07:29:36;102613.88;;;6.66;81.60
17362;BME280;8798;51.938;4.348;2024-01-25T07:32:06;102624.50;;;6.68;81.96
17362;BME280;8798;51.938;4.348;2024-01-25T07:34:34;102639.50;;;6.71;81.55
17362;BME280;8798;51.938;4.348;2024-01-25T07:37:03;102642.22;;;6.69;81.63
17362;BME280;8798;51.938;4.348;2024-01-25T07:39:31;102642.22;;;6.69;82.11
17362;BME280;8798;51.938;4.348;2024-01-25T07:41:59;102649.38;;;6.68;81.67
17362;BME280;8798;51.938;4.348;2024-01-25T07:44:27;102656.38;;;6.71;82.18
17362;BME280;8798;51.938;4.348;2024-01-25T07:46:55;102666.09;;;6.72;81.29
17362;BME280;8798;51.938;4.348;2024-01-25T07:49:25;102681.97;;;6.75;82.23
17362;BME280;8798;51.938;4.348;2024-01-25T07:51:54;102690.75;;;6.77;81.88
17362;BME280;8798;51.938;4.348;2024-01-25T07:54:24;102703.06;;;6.80;81.75
17362;BME280;8798;51.938;4.348;2024-01-25T07:56:52;102714.53;;;6.82;82.51
17362;BME280;8798;51.938;4.348;2024-01-25T07:59:20;102735.66;;;6.86;82.72
17362;BME280;8798;51.938;4.348;2024-01-25T08:01:48;102743.63;;;6.88;81.74
17362;BME280;8798;51.938;4.348;2024-01-25T08:04:17;102764.81;;;6.91;82.29
17362;BME280;8798;51.938;4.348;2024-01-25T08:06:46;102772.66;;;6.94;82.11
17362;BME280;8798;51.938;4.348;2024-01-25T08:09:14;102789.41;;;6.98;82.10
17362;BME280;8798;51.938;4.348;2024-01-25T08:11:43;102802.59;;;7.01;81.76
17362;BME280;8798;51.938;4.348;2024-01-25T08:14:12;102817.63;;;7.03;82.26
17362;BME280;8798;51.938;4.348;2024-01-25T08:16:41;102839.63;;;7.08;82.86
17362;BME280;8798;51.938;4.348;2024-01-25T08:19:09;102846.59;;;7.11;82.13
17362;BME280;8798;51.938;4.348;2024-01-25T08:21:37;102862.47;;;7.14;82.22
17362;BME280;8798;51.938;4.348;2024-01-25T08:24:07;102865.16;;;7.14;82.69
17362;BME280;8798;51.938;4.348;2024-01-25T08:26:35;102875.75;;;7.16;82.29
17362;BME280;8798;51.938;4.348;2024-01-25T08:29:05;102881.91;;;7.18;82.54
17362;BME280;8798;51.938;4.348;2024-01-25T08:31:33;102886.28;;;7.19;81.92
17362;BME280;8798;51.938;4.348;2024-01-25T08:34:01;102893.38;;;7.20;82.17
17362;BME280;8798;51.938;4.348;2024-01-25T08:36:29;102898.72;;;7.20;82.33
17362;BME280;8798;51.938;4.348;2024-01-25T08:38:57;102910.13;;;7.23;82.48
17362;BME280;8798;51.938;4.348;2024-01-25T08:41:27;102929.44;;;7.28;82.58
17362;BME280;8798;51.938;4.348;2024-01-25T08:43:58;102941.91;;;7.29;82.60
17362;BME280;8798;51.938;4.348;2024-01-25T08:46:27;102949.81;;;7.31;81.98
17362;BME280;8798;51.938;4.348;2024-01-25T08:48:55;102953.34;;;7.31;82.91
17362;BME280;8798;51.938;4.348;2024-01-25T08:51:23;102955.09;;;7.32;82.26
17362;BME280;8798;51.938;4.348;2024-01-25T08:53:51;102957.66;;;7.34;82.07
17362;BME280;8798;51.938;4.348;2024-01-25T08:56:19;102968.34;;;7.34;82.28
17362;BME280;8798;51.938;4.348;2024-01-25T08:58:48;102971.75;;;7.38;82.51
17362;BME280;8798;51.938;4.348;2024-01-25T09:01:17;102997.31;;;7.43;82.21
17362;BME280;8798;51.938;4.348;2024-01-25T09:03:45;103013.97;;;7.48;82.37
17362;BME280;8798;51.938;4.348;2024-01-25T09:06:13;103029.88;;;7.51;83.19
17362;BME280;8798;51.938;4.348;2024-01-25T09:08:42;103037.81;;;7.53;82.52
17362;BME280;8798;51.938;4.348;2024-01-25T09:11:10;103041.28;;;7.55;83.11
17362;BME280;8798;51.938;4.348;2024-01-25T09:13:38;103043.09;;;7.54;82.83
17362;BME280;8798;51.938;4.348;2024-01-25T09:16:14;103047.50;;;7.56;82.51
17362;BME280;8798;51.938;4.348;2024-01-25T09:18:42;103050.97;;;7.58;82.81
17362;BME280;8798;51.938;4.348;2024-01-25T09:21:10;103063.31;;;7.60;82.80
17362;BME280;8798;51.938;4.348;2024-01-25T09:23:52;103057.97;;;7.60;82.26
17362;BME280;8798;51.938;4.348;2024-01-25T09:26:20;103057.00;;;7.61;83.13
17362;BME280;8798;51.938;4.348;2024-01-25T09:28:49;103069.38;;;7.64;82.94
17362;BME280;8798;51.938;4.348;2024-01-25T09:31:18;103078.19;;;7.66;83.04
17362;BME280;8798;51.938;4.348;2024-01-25T09:33:47;103080.78;;;7.67;82.79
17362;BME280;8798;51.938;4.348;2024-01-25T09:36:16;103085.19;;;7.68;82.47
17362;BME280;8798;51.938;4.348;2024-01-25T09:38:44;103087.84;;;7.68;82.92
17362;BME280;8798;51.938;4.348;2024-01-25T09:41:14;103084.31;;;7.68;83.21
17362;BME280;8798;51.938;4.348;2024-01-25T09:43:42;103099.28;;;7.72;83.03
17362;BME280;8798;51.938;4.348;2024-01-25T09:46:13;103101.81;;;7.75;82.80
17362;BME280;8798;51.938;4.348;2024-01-25T09:48:44;103114.97;;;7.80;82.69
17362;BME280;8798;51.938;4.348;2024-01-25T09:51:15;103138.00;;;7.82;82.89
17362;BME280;8798;51.938;4.348;2024-01-25T09:53:45;103148.56;;;7.85;82.71
17362;BME280;8798;51.938;4.348;2024-01-25T09:56:19;103139.66;;;7.85;82.95
17362;BME280;8798;51.938;4.348;2024-01-25T09:58:47;103151.16;;;7.87;82.46
17362;BME280;8798;51.938;4.348;2024-01-25T10:01:16;103165.19;;;7.92;82.88
17362;BME280;8798;51.938;4.348;2024-01-25T10:03:46;103187.22;;;7.97;83.18
17362;BME280;8798;51.938;4.348;2024-01-25T10:06:15;103201.25;;;8.02;82.99
17362;BME280;8798;51.938;4.348;2024-01-25T10:08:44;103217.06;;;8.07;83.26
17362;BME280;8798;51.938;4.348;2024-01-25T10:11:12;103225.91;;;8.09;83.10
17362;BME280;8798;51.938;4.348;2024-01-25T10:13:41;103238.16;;;8.13;83.21
17362;BME280;8798;51.938;4.348;2024-01-25T10:16:11;103251.44;;;8.16;83.59
17362;BME280;8798;51.938;4.348;2024-01-25T10:18:42;103258.34;;;8.20;83.20
17362;BME280;8798;51.938;4.348;2024-01-25T10:21:13;103273.31;;;8.24;83.47
17362;BME280;8798;51.938;4.348;2024-01-25T10:23:44;103289.16;;;8.29;83.33
17362;BME280;8798;51.938;4.348;2024-01-25T10:26:13;103289.00;;;8.32;83.58
17362;BME280;8798;51.938;4.348;2024-01-25T10:28:41;103322.56;;;8.39;83.16
17362;BME280;8798;51.938;4.348;2024-01-25T10:31:09;103337.50;;;8.45;83.47
17362;BME280;8798;51.938;4.348;2024-01-25T10:33:38;103360.41;;;8.50;83.50
17362;BME280;8798;51.938;4.348;2024-01-25T10:36:08;103377.06;;;8.57;83.14
17362;BME280;8798;51.938;4.348;2024-01-25T10:38:37;103393.78;;;8.62;83.32
17362;BME280;8798;51.938;4.348;2024-01-25T10:41:05;103406.94;;;8.67;83.37
17362;BME280;8798;51.938;4.348;2024-01-25T10:43:34;103428.06;;;8.73;83.45
17362;BME280;8798;51.938;4.348;2024-01-25T10:46:03;103443.16;;;8.75;83.42
17362;BME280;8798;51.938;4.348;2024-01-25T10:48:31;103440.31;;;8.78;83.19
17362;BME280;8798;51.938;4.348;2024-01-25T10:51:01;103449.16;;;8.80;83.39
17362;BME280;8798;51.938;4.348;2024-01-25T10:53:32;103449.94;;;8.82;83.54
17362;BME280;8798;51.938;4.348;2024-01-25T10:56:03;103443.66;;;8.83;83.40
17362;BME280;8798;51.938;4.348;2024-01-25T10:58:31;103455.06;;;8.87;83.65
17362;BME280;8798;51.938;4.348;2024-01-25T11:01:08;103472.69;;;8.93;83.65
17362;BME280;8798;51.938;4.348;2024-01-25T11:03:42;103491.13;;;8.99;83.44
17362;BME280;8798;51.938;4.348;2024-01-25T11:06:11;103502.44;;;9.06;83.57
17362;BME280;8798;51.938;4.348;2024-01-25T11:08:40;103513.84;;;9.09;83.51
17362;BME280;8798;51.938;4.348;2024-01-25T11:11:11;103508.50;;;9.09;83.25
17362;BME280;8798;51.938;4.348;2024-01-25T11:13:41;103492.50;;;9.08;83.75
17362;BME280;8798;51.938;4.348;2024-01-25T11:16:14;103484.47;;;9.08;83.50
17362;BME280;8798;51.938;4.348;2024-01-25T11:18:49;103481.69;;;9.09;83.65
17362;BME280;8798;51.938;4.348;2024-01-25T11:21:22;103481.63;;;9.11;83.45
17362;BME280;8798;51.938;4.348;2024-01-25T11:23:59;103490.38;;;9.14;83.63
17362;BME280;8798;51.938;4.348;2024-01-25T11:26:28;103503.53;;;9.19;83.06
17362;BME280;8798;51.938;4.348;2024-01-25T11:28:56;103523.75;;;9.26;83.49
17362;BME280;8798;51.938;4.348;2024-01-25T11:31:27;103543.16;;;9.31;83.91
17362;BME280;8798;51.938;4.348;2024-01-25T11:33:59;103551.84;;;9.36;83.44
17362;BME280;8798;51.938;4.348;2024-01-25T11:36:28;103564.06;;;9.42;83.55
17362;BME280;8798;51.938;4.348;2024-01-25T11:38:57;103577.28;;;9.46;83.69
17362;BME280;8798;51.938;4.348;2024-01-25T11:41:25;103581.53;;;9.51;83.59
17362;BME280;8798;51.938;4.348;2024-01-25T11:43:54;103604.44;;;9.58;83.37
17362;BME280;8798;51.938;4.348;2024-01-25T11:46:23;103606.97;;;9.61;83.50
17362;BME280;8798;51.938;4.348;2024-01-25T11:48:52;103614.78;;;9.65;83.27
17362;BME280;8798;51.938;4.348;2024-01-25T11:51:21;103615.66;;;9.66;83.94
17362;BME280;8798;51.938;4.348;2024-01-25T11:53:49;103613.72;;;9.69;83.68
17362;BME280;8798;51.938;4.348;2024-01-25T11:56:31;103617.97;;;9.74;83.72
17362;BME280;8798;51.938;4.348;2024-01-25T11:59:07;103615.22;;;9.75;83.39
17362;BME280;8798;51.938;4.348;2024-01-25T12:01:35;103629.25;;;9.80;83.42
17362;BME280;8798;51.938;4.348;2024-01-25T12:04:04;103643.31;;;9.85;83.37
17362;BME280;8798;51.938;4.348;2024-01-25T12:06:34;103657.22;;;9.94;83.27
17362;BME280;8798;51.938;4.348;2024-01-25T12:09:07;103673.03;;;10.00;83.68
17362;BME280;8798;51.938;4.348;2024-01-25T12:11:36;103683.63;;;10.03;83.35
17362;BME280;8798;51.938;4.348;2024-01-25T12:14:07;103679.97;;;10.04;83.15
17362;BME280;8798;51.938;4.348;2024-01-25T12:16:35;103673.59;;;10.06;83.73
17362;BME280;8798;51.938;4.348;2024-01-25T12:19:05;103669.88;;;10.09;83.02
17362;BME280;8798;51.938;4.348;2024-01-25T12:21:34;103675.09;;;10.12;83.51
17362;BME280;8798;51.938;4.348;2024-01-25T12:24:04;103678.41;;;10.17;83.63
17362;BME280;8798;51.938;4.348;2024-01-25T12:26:34;103694.31;;;10.22;83.66
17362;BME280;8798;51.938;4.348;2024-01-25T12:29:02;103695.84;;;10.26;82.99
17362;BME280;8798;51.938;4.348;2024-01-25T12:31:33;103694.88;;;10.28;83.01
17362;BME280;8798;51.938;4.348;2024-01-25T12:34:01;103698.34;;;10.30;82.80
17362;BME280;8798;51.938;4.348;2024-01-25T12:36:30;103695.50;;;10.33;83.32
17362;BME280;8798;51.938;4.348;2024-01-25T12:38:59;103672.28;;;10.32;82.82
17362;BME280;8798;51.938;4.348;2024-01-25T12:41:28;103670.38;;;10.35;82.90
17362;BME280;8798;51.938;4.348;2024-01-25T12:43:57;103667.63;;;10.36;83.39
17362;BME280;8798;51.938;4.348;2024-01-25T12:46:25;103671.00;;;10.40;82.90
17362;BME280;8798;51.938;4.348;2024-01-25T12:48:56;103687.75;;;10.45;82.43
17362;BME280;8798;51.938;4.348;2024-01-25T12:51:26;103692.91;;;10.49;83.19
17362;BME280;8798;51.938;4.348;2024-01-25T12:53:54;103687.47;;;10.51;83.31
17362;BME280;8798;51.938;4.348;2024-01-25T12:56:24;103710.34;;;10.58;83.05
17362;BME280;8798;51.938;4.348;2024-01-25T12:58:54;103709.25;;;10.62;82.97
17362;BME280;8798;51.938;4.348;2024-01-25T13:01:22;103696.59;;;10.64;82.91
17362;BME280;8798;51.938;4.348;2024-01-25T13:03:51;103705.44;;;10.66;82.60
17362;BME280;8798;51.938;4.348;2024-01-25T13:06:20;103692.81;;;10.68;82.43
17362;BME280;8798;51.938;4.348;2024-01-25T13:08:48;103690.97;;;10.69;82.66
17362;BME280;8798;51.938;4.348;2024-01-25T13:11:16;103669.53;;;10.67;82.34
17362;BME280;8798;51.938;4.348;2024-01-25T13:13:44;103651.69;;;10.66;82.41
17362;BME280;8798;51.938;4.348;2024-01-25T13:16:12;103636.50;;;10.65;82.69
17362;BME280;8798;51.938;4.348;2024-01-25T13:18:40;103630.09;;;10.68;82.34